Time;durP1;ratioP1;P1;durP2;ratioP2;P2;SDS_P1;SDS_P2;PMS_P1;PMS_P2;Temp;Humidity;BMP_temperature;BMP_pressure;BME280_temperature;BME280_humidity;BME280_pressure;Samples;Min_cycle;Max_cycle;Signal;HPM_P1;HPM_P2
2021/09/06 03:35:18;;;;;;;326.27;306.50;;;11.40;99.90;;;;;;4935026;29;20576;-81
2021/09/06 03:37:53;;;;;;;332.63;311.47;;;11.40;99.90;;;;;;4933579;29;20457;-81
2021/09/06 03:40:47;;;;;;;;;;;;;;;;;;;;;
2021/09/06 03:43:14;;;;;;;348.43;327.13;;;11.40;99.90;;;;;;4931620;29;20464;-79
2021/09/06 03:45:40;;;;;;;344.17;323.30;;;11.40;99.90;;;;;;4934997;29;20928;-78
2021/09/06 03:48:09;;;;;;;339.50;317.80;;;11.40;99.90;;;;;;4935163;29;20460;-77
2021/09/06 03:50:36;;;;;;;325.00;304.77;;;11.30;99.90;;;;;;4934751;29;21024;-77
2021/09/06 03:53:27;;;;;;;344.27;323.70;;;11.30;99.90;;;;;;4933820;29;20671;-79
2021/09/06 03:55:54;;;;;;;349.70;328.00;;;11.30;99.90;;;;;;4934946;29;20466;-77
2021/09/06 03:58:45;;;;;;;339.50;320.07;;;11.40;99.90;;;;;;4934851;29;20551;-79
2021/09/06 04:04:59;;;;;;;342.90;323.10;;;11.30;99.90;;;;;;4813735;29;20493;-79
2021/09/06 04:07:26;;;;;;;336.20;315.60;;;11.10;99.90;;;;;;4911026;29;20464;-79
2021/09/06 04:09:53;;;;;;;334.37;314.03;;;11.10;99.90;;;;;;4938327;29;20609;-79
2021/09/06 04:12:20;;;;;;;337.07;317.27;;;11.10;99.90;;;;;;4938297;29;20520;-80
2021/09/06 04:14:47;;;;;;;324.47;304.87;;;11.10;99.90;;;;;;4938165;29;20540;-79
2021/09/06 04:17:14;;;;;;;327.03;307.03;;;11.00;99.90;;;;;;4938114;29;20523;-80
2021/09/06 04:19:41;;;;;;;349.07;326.37;;;11.00;99.90;;;;;;4938055;29;21023;-79
2021/09/06 04:22:09;;;;;;;326.87;306.50;;;11.00;99.90;;;;;;4936631;29;20516;-79
2021/09/06 04:24:36;;;;;;;334.03;312.97;;;11.00;99.90;;;;;;4937880;29;20528;-79
2021/09/06 04:27:03;;;;;;;317.83;297.97;;;10.90;99.90;;;;;;4938021;29;20555;-79
2021/09/06 04:29:30;;;;;;;309.73;290.97;;;10.90;99.90;;;;;;4938015;29;20540;-79
2021/09/06 04:31:57;;;;;;;314.63;295.87;;;10.80;99.90;;;;;;4937757;29;20480;-80
2021/09/06 04:34:24;;;;;;;313.97;292.67;;;10.90;99.90;;;;;;4937801;29;20489;-79
2021/09/06 04:36:51;;;;;;;313.90;293.80;;;10.80;99.90;;;;;;4936558;29;20483;-80
2021/09/06 04:40:08;;;;;;;318.43;297.70;;;10.90;99.90;;;;;;4937634;29;20556;-83
2021/09/06 04:43:08;;;;;;;;;;;;;;;;;;;;;
2021/09/06 04:48:45;;;;;;;323.53;304.63;;;10.80;99.90;;;;;;4771083;30;20475;-80
2021/09/06 04:51:12;;;;;;;315.00;295.70;;;10.70;99.90;;;;;;4890908;29;20457;-79
2021/09/06 04:53:40;;;;;;;310.70;291.67;;;10.70;99.90;;;;;;4882891;29;20561;-79
2021/09/06 04:56:08;;;;;;;308.47;289.10;;;10.70;99.90;;;;;;4878584;29;20553;-78
2021/09/06 04:58:36;;;;;;;323.37;303.00;;;10.70;99.90;;;;;;4893906;29;20466;-79
2021/09/06 05:01:06;;;;;;;328.13;306.83;;;10.70;99.90;;;;;;4897454;29;20495;-78
2021/09/06 05:03:33;;;;;;;323.23;303.57;;;10.70;99.90;;;;;;4897542;29;20850;-80
2021/09/06 05:06:00;;;;;;;336.27;315.47;;;10.80;99.90;;;;;;4897016;29;20518;-79
2021/09/06 05:08:28;;;;;;;323.77;303.10;;;10.90;99.90;;;;;;4930929;29;20479;-79
2021/09/06 05:10:57;;;;;;;323.27;302.40;;;10.80;99.90;;;;;;4937321;29;20465;-80
2021/09/06 05:20:49;;;;;;;;;;;;;;;;;;;;;
2021/09/06 05:26:57;;;;;;;;;;;;;;;;;;;;;
2021/09/06 05:36:13;;;;;;;;;;;;;;;;;;;;;
2021/09/06 05:38:43;;;;;;;334.17;312.67;;;11.10;99.90;;;;;;4771673;30;20456;-81
2021/09/06 05:44:49;;;;;;;346.43;321.53;;;11.30;99.90;;;;;;4937171;29;20501;-81
2021/09/06 05:47:17;;;;;;;361.40;335.90;;;11.50;99.90;;;;;;4936157;29;20465;-80
2021/09/06 05:50:34;;;;;;;354.13;329.77;;;11.40;99.90;;;;;;4936263;29;20492;-82
2021/09/06 06:31:43;;;;;;;346.70;324.53;;;13.10;99.90;;;;;;4627528;30;20546;-75
2021/09/06 06:34:10;;;;;;;337.80;316.10;;;13.30;99.90;;;;;;4719829;30;20505;-81
2021/09/06 06:36:37;;;;;;;335.43;314.53;;;13.30;99.90;;;;;;4800330;29;20465;-75
2021/09/06 06:39:05;;;;;;;337.40;316.77;;;13.40;99.90;;;;;;4819362;29;20481;-79
2021/09/06 06:41:32;;;;;;;333.70;312.27;;;13.60;99.90;;;;;;4820596;29;20462;-76
2021/09/06 06:44:09;;;;;;;;;;;;;;;;;;;;;
2021/09/06 06:46:55;;;;;;;315.47;294.87;;;13.90;99.90;;;;;;4775081;29;21025;-80
2021/09/06 06:49:22;;;;;;;316.33;295.87;;;13.90;99.90;;;;;;4820375;29;20545;-82
2021/09/06 06:51:49;;;;;;;295.47;277.97;;;14.00;99.90;;;;;;4832294;29;20476;-83
2021/09/06 06:54:16;;;;;;;303.10;284.30;;;14.20;99.90;;;;;;4844769;29;20521;-81
2021/09/06 06:56:43;;;;;;;286.33;268.63;;;14.50;99.90;;;;;;4914975;29;20545;-79
2021/09/06 06:59:15;;;;;;;273.87;256.70;;;14.40;99.90;;;;;;4915228;29;20501;-81
2021/09/06 07:01:43;;;;;;;262.10;245.93;;;14.50;99.90;;;;;;4915616;29;20517;-81
2021/09/06 07:04:11;;;;;;;266.00;246.60;;;14.70;99.90;;;;;;4916386;29;20483;-78
2021/09/06 07:07:08;;;;;;;259.93;242.23;;;14.80;99.90;;;;;;4915960;29;20859;-83
2021/09/06 07:12:59;;;;;;;222.97;207.70;;;15.20;99.90;;;;;;4836865;29;21003;-83
2021/09/06 07:15:48;;;;;;;195.17;182.10;;;15.30;99.90;;;;;;4908933;29;20458;-82
2021/09/06 07:18:52;;;;;;;;;;;;;;;;;;;;;
2021/09/06 07:21:51;;;;;;;171.67;160.00;;;15.40;99.90;;;;;;4892740;29;20969;-82
2021/09/06 07:37:59;;;;;;;121.47;113.50;;;16.20;99.90;;;;;;4776755;29;20475;-83
2021/09/06 07:41:07;;;;;;;;;;;;;;;;;;;;;
2021/09/06 07:44:05;;;;;;;107.40;100.37;;;16.50;99.90;;;;;;4845819;29;20458;-82
2021/09/06 07:46:54;;;;;;;;;;;;;;;;;;;;;
2021/09/06 07:49:24;;;;;;;84.00;78.00;;;16.60;99.90;;;;;;4705789;30;20457;-82
2021/09/06 07:52:42;;;;;;;;;;;;;;;;;;;;;
2021/09/06 07:55:14;;;;;;;82.30;76.20;;;17.00;99.90;;;;;;4713767;30;20884;-82
2021/09/06 08:01:41;;;;;;;51.03;46.37;;;17.70;99.90;;;;;;4738820;30;20796;-83
2021/09/06 08:04:37;;;;;;;36.90;23.70;;;18.20;99.90;;;;;;4770049;30;20514;-83
2021/09/06 08:14:14;;;;;;;30.70;20.90;;;19.50;99.90;;;;;;4697454;30;20474;-83
2021/09/06 08:17:11;;;;;;;;;;;;;;;;;;;;;
2021/09/06 08:22:50;;;;;;;30.30;20.67;;;20.50;91.50;;;;;;4841214;29;20588;-84
2021/09/06 08:25:43;;;;;;;30.77;21.97;;;20.60;82.40;;;;;;4842219;29;20501;-83
2021/09/06 08:28:10;;;;;;;26.70;19.73;;;20.90;79.70;;;;;;4880486;29;20465;-80
2021/09/06 08:30:38;;;;;;;25.50;18.30;;;21.20;78.60;;;;;;4900234;29;20548;-84
2021/09/06 08:33:07;;;;;;;25.63;18.93;;;21.40;70.30;;;;;;4900145;29;20950;-84
2021/09/06 08:35:34;;;;;;;31.50;19.83;;;21.60;64.50;;;;;;4902256;29;20466;-78
2021/09/06 08:38:04;;;;;;;32.00;18.67;;;21.70;64.90;;;;;;4917554;29;20471;-85
2021/09/06 08:40:31;;;;;;;25.87;18.67;;;22.20;59.20;;;;;;4918778;29;20468;-82
2021/09/06 08:43:05;;;;;;;32.80;20.97;;;22.40;57.70;;;;;;4915056;29;20465;-82
2021/09/06 08:45:37;;;;;;;23.93;17.63;;;22.70;61.20;;;;;;4918190;29;20579;-81
2021/09/06 08:48:48;;;;;;;30.50;22.10;;;22.90;56.00;;;;;;4918660;29;20458;-81
2021/09/06 08:51:32;;;;;;;25.50;19.97;;;23.10;52.30;;;;;;4897220;29;20497;-83
2021/09/06 08:54:35;;;;;;;;;;;;;;;;;;;;;
2021/09/06 08:57:25;;;;;;;25.20;18.03;;;24.20;44.80;;;;;;4918646;29;20512;-83
2021/09/06 09:35:55;;;;;;;;;;;;;;;;;;;;;
2021/09/06 10:44:11;;;;;;;25.23;20.60;;;29.30;1.60;;;;;;1363390;26;20484;-80
2021/09/06 10:46:38;;;;;;;28.40;20.37;;;29.50;1.00;;;;;;4935655;29;20990;-79
2021/09/06 10:49:08;;;;;;;27.00;18.27;;;29.60;1.00;;;;;;4935697;29;20520;-79
2021/09/06 10:51:36;;;;;;;26.57;20.93;;;29.30;1.10;;;;;;5319329;23;20484;-79
2021/09/06 10:54:07;;;;;;;28.43;22.33;;;29.40;2.00;;;;;;4935243;29;20442;-79
2021/09/06 10:56:37;;;;;;;27.03;21.93;;;29.60;1.00;;;;;;4935391;29;21045;-79
2021/09/06 11:16:56;;;;;;;24.83;15.10;;;31.40;1.00;;;;;;4286679;23;20533;-83
2021/09/06 11:19:23;;;;;;;24.23;15.40;;;29.70;1.00;;;;;;4939369;29;20527;-80
2021/09/06 11:21:57;;;;;;;22.90;18.03;;;29.10;1.00;;;;;;4938192;29;20522;-76
2021/09/06 11:24:26;;;;;;;22.27;14.60;;;27.90;1.80;;;;;;4939367;29;20543;-75
2021/09/06 11:26:53;;;;;;;23.00;17.13;;;27.80;1.00;;;;;;4939232;29;20452;-75
2021/09/06 11:33:36;;;;;;;;;;;;;;;;;;;;;
2021/09/06 11:36:52;;;;;;;22.17;17.00;;;26.10;7.30;;;;;;4771070;29;20910;-83
2021/09/06 12:12:09;;;;;;;;;;;;;;;;;;;;;
2021/09/06 12:38:13;;;;;;;19.47;12.07;;;29.80;1.00;;;;;;4785805;29;20475;-83
2021/09/06 12:40:53;;;;;;;18.67;12.80;;;30.60;1.00;;;;;;4823728;29;20432;-83
2021/09/06 12:47:21;;;;;;;15.60;12.40;;;31.70;1.00;;;;;;4780422;29;20964;-83
2021/09/06 14:23:06;;;;;;;18.40;12.97;;;26.20;1.00;;;;;;4708756;30;20455;-76
2021/09/06 14:25:32;;;;;;;17.80;12.00;;;26.00;1.00;;;;;;4827731;29;20318;-78
2021/09/06 14:28:00;;;;;;;18.30;12.10;;;25.70;1.00;;;;;;4896343;29;20465;-77
2021/09/06 14:30:27;;;;;;;19.53;12.57;;;25.80;1.00;;;;;;4915034;29;20508;-77
2021/09/06 14:32:54;;;;;;;18.30;11.93;;;26.20;1.00;;;;;;4915554;29;21020;-78
2021/09/06 14:35:21;;;;;;;18.93;12.80;;;26.70;1.00;;;;;;4915270;29;20489;-77
2021/09/06 14:37:48;;;;;;;18.60;11.20;;;26.90;1.00;;;;;;4914103;29;20544;-78
2021/09/06 14:40:16;;;;;;;20.07;11.23;;;26.80;1.00;;;;;;4915319;29;20811;-78
2021/09/06 14:42:47;;;;;;;18.93;10.93;;;26.60;1.00;;;;;;4915008;29;20480;-78
2021/09/06 14:45:16;;;;;;;17.73;10.17;;;26.50;1.00;;;;;;4914862;29;20465;-77
2021/09/06 14:47:43;;;;;;;19.50;12.33;;;26.40;1.00;;;;;;4915357;29;20461;-77
2021/09/06 14:50:12;;;;;;;17.33;10.60;;;26.30;1.00;;;;;;4914896;29;20465;-77
2021/09/06 14:52:40;;;;;;;17.20;11.17;;;26.10;1.00;;;;;;4914119;29;20464;-77
2021/09/06 14:55:09;;;;;;;15.80;10.70;;;26.10;1.00;;;;;;4914865;29;20446;-80
2021/09/06 14:57:37;;;;;;;15.60;11.83;;;26.10;1.00;;;;;;4915164;29;20497;-79
2021/09/06 15:00:06;;;;;;;17.40;10.33;;;26.50;1.00;;;;;;4915001;29;20452;-79
2021/09/06 15:02:35;;;;;;;15.90;10.63;;;27.10;1.00;;;;;;4914900;29;21012;-80
2021/09/06 15:05:02;;;;;;;19.60;11.23;;;27.90;1.00;;;;;;4915120;29;20454;-82
2021/09/06 15:07:29;;;;;;;19.97;11.60;;;28.80;1.00;;;;;;4913785;29;20463;-82
2021/09/06 15:10:03;;;;;;;17.07;11.17;;;29.20;1.00;;;;;;4915096;29;20944;-84
2021/09/06 15:19:54;;;;;;;15.80;11.10;;;29.30;1.00;;;;;;4790444;29;20446;-81
2021/09/06 15:41:53;;;;;;;17.10;11.40;;;25.50;1.00;;;;;;4697740;30;20604;-81
2021/09/06 15:47:59;;;;;;;27.47;12.67;;;25.20;1.00;;;;;;4706715;30;20530;-81
2021/09/06 15:50:30;;;;;;;22.80;11.00;;;25.10;1.00;;;;;;4759492;30;20469;-82
2021/09/06 15:53:01;;;;;;;21.17;11.40;;;25.10;1.00;;;;;;4764875;30;20499;-82
2021/09/06 15:55:47;;;;;;;;;;;;;;;;;;;;;
2021/09/06 15:58:32;;;;;;;20.00;11.10;;;24.90;1.00;;;;;;4898625;29;20579;-82
2021/09/06 16:00:59;;;;;;;17.30;11.00;;;24.70;1.00;;;;;;4898789;29;20497;-79
2021/09/06 16:03:27;;;;;;;18.13;10.77;;;24.50;1.10;;;;;;4899000;29;21009;-79
2021/09/06 16:05:54;;;;;;;24.57;11.80;;;24.50;4.70;;;;;;4899425;29;20472;-78
2021/09/06 16:08:21;;;;;;;18.97;11.10;;;24.30;4.50;;;;;;4898056;29;20505;-77
2021/09/06 16:11:12;;;;;;;21.70;10.93;;;24.30;3.20;;;;;;4898784;29;20464;-82
2021/09/06 16:16:47;;;;;;;19.43;10.77;;;24.60;1.00;;;;;;4889173;29;20465;-82
2021/09/06 16:19:24;;;;;;;21.10;11.87;;;24.80;3.00;;;;;;4898853;29;20763;-82
2021/09/06 16:22:05;;;;;;;;;;;;;;;;;;;;;
2021/09/06 16:34:46;;;;;;;;;;;;;;;;;;;;;
2021/09/06 16:37:32;;;;;;;21.43;9.90;;;24.20;7.60;;;;;;4766920;30;20484;-81
2021/09/06 16:40:29;;;;;;;17.63;10.10;;;23.80;10.80;;;;;;4786969;29;20466;-82
2021/09/06 16:42:57;;;;;;;23.90;10.73;;;23.60;14.80;;;;;;4813257;29;20440;-80
2021/09/06 16:45:29;;;;;;;18.80;10.77;;;23.40;13.90;;;;;;4882134;29;20466;-81
2021/09/06 16:47:59;;;;;;;17.13;9.60;;;23.50;15.40;;;;;;4917892;29;20472;-81
2021/09/06 16:50:28;;;;;;;21.80;11.63;;;23.40;15.30;;;;;;4917442;29;20488;-80
2021/09/06 16:52:56;;;;;;;20.33;10.43;;;23.40;14.70;;;;;;4916819;29;20967;-80
2021/09/06 16:55:23;;;;;;;17.40;11.57;;;23.20;15.60;;;;;;4917041;29;20492;-80
2021/09/06 16:57:57;;;;;;;28.00;13.10;;;23.00;15.60;;;;;;4916529;29;20507;-81
2021/09/06 17:00:27;;;;;;;101.70;17.80;;;23.00;16.70;;;;;;4916924;29;20481;-84
2021/09/06 17:02:56;;;;;;;27.33;10.80;;;22.90;17.90;;;;;;4917092;29;20808;-84
2021/09/06 17:05:23;;;;;;;17.80;10.00;;;23.00;18.40;;;;;;4917010;29;20464;-83
2021/09/06 17:07:52;;;;;;;27.00;10.03;;;23.00;17.70;;;;;;4915547;29;20495;-83
2021/09/06 17:30:16;;;;;;;15.70;9.33;;;23.60;14.80;;;;;;4748856;30;20497;-83
2021/09/06 17:39:19;;;;;;;14.83;7.93;;;23.60;14.80;;;;;;4737159;29;20565;-78
2021/09/06 17:42:18;;;;;;;16.00;8.70;;;23.40;14.60;;;;;;4916443;29;20446;-83
2021/09/06 17:45:12;;;;;;;;;;;;;;;;;;;;;
2021/09/06 17:48:12;;;;;;;13.97;8.80;;;23.20;14.90;;;;;;4866817;29;20466;-83
2021/09/06 17:53:55;;;;;;;;;;;;;;;;;;;;;
2021/09/06 17:56:30;;;;;;;13.03;8.30;;;21.70;18.90;;;;;;4912347;29;20506;-83
2021/09/06 17:59:04;;;;;;;15.13;8.13;;;21.20;22.60;;;;;;4915576;29;20817;-83
2021/09/06 18:02:11;;;;;;;15.87;9.10;;;20.70;23.00;;;;;;4916030;29;20496;-83
2021/09/06 18:05:25;;;;;;;22.27;8.97;;;20.30;24.20;;;;;;4840755;29;20567;-83
2021/09/06 18:07:55;;;;;;;27.03;8.70;;;19.90;26.90;;;;;;4857573;29;20456;-82
2021/09/06 18:11:01;;;;;;;;;;;;;;;;;;;;;
2021/09/06 18:17:20;;;;;;;;;;;;;;;;;;;;;
2021/09/06 18:20:29;;;;;;;17.60;8.77;;;18.90;34.90;;;;;;4859495;29;20540;-83
2021/09/06 18:23:32;;;;;;;;;;;;;;;;;;;;;
2021/09/06 18:32:45;;;;;;;21.47;8.40;;;18.10;42.60;;;;;;4735019;30;20470;-82
2021/09/06 18:41:28;;;;;;;15.70;8.63;;;17.90;47.60;;;;;;4678518;30;20469;-83
2021/09/06 18:50:53;;;;;;;;;;;;;;;;;;;;;
2021/09/06 18:53:55;;;;;;;14.73;8.73;;;17.60;51.00;;;;;;4754455;29;20620;-83
2021/09/06 19:13:49;;;;;;;;;;;;;;;;;;;;;
2021/09/06 19:20:24;;;;;;;;;;;;;;;;;;;;;
2021/09/06 19:23:42;;;;;;;;;;;;;;;;;;;;;
2021/09/06 19:26:17;;;;;;;16.17;10.37;;;16.30;66.70;;;;;;4834775;29;20615;-82
2021/09/06 19:32:51;;;;;;;16.03;10.37;;;16.00;71.50;;;;;;4886340;29;20504;-83
2021/09/06 19:42:50;;;;;;;;;;;;;;;;;;;;;
2021/09/06 19:55:55;;;;;;;22.13;11.00;;;15.30;75.10;;;;;;4718143;30;20552;-83
2021/09/06 20:05:42;;;;;;;19.73;12.10;;;15.20;81.70;;;;;;4775966;29;21020;-83
2021/09/06 20:12:10;;;;;;;17.47;11.87;;;14.90;83.30;;;;;;4806253;29;20470;-83
2021/09/06 20:21:15;;;;;;;23.40;13.67;;;14.80;90.60;;;;;;4715692;30;20467;-83
2021/09/06 20:24:27;;;;;;;;;;;;;;;;;;;;;
2021/09/06 20:30:21;;;;;;;20.73;13.53;;;14.60;90.50;;;;;;4870507;29;20467;-83
2021/09/06 20:36:15;;;;;;;23.03;13.13;;;14.60;92.90;;;;;;4755772;29;20472;-83
2021/09/06 20:42:06;;;;;;;;;;;;;;;;;;;;;
2021/09/06 20:48:31;;;;;;;25.93;23.30;;;14.50;97.20;;;;;;4715701;30;20559;-83
2021/09/06 20:51:18;;;;;;;21.20;18.90;;;14.50;97.20;;;;;;4762142;29;20919;-83
2021/09/06 20:57:25;;;;;;;19.90;15.80;;;14.30;97.60;;;;;;4832191;29;21010;-83
2021/09/06 21:00:43;;;;;;;;;;;;;;;;;;;;;
2021/09/06 21:06:56;;;;;;;;;;;;;;;;;;;;;
2021/09/06 21:10:14;;;;;;;;;;;;;;;;;;;;;
2021/09/06 21:16:17;;;;;;;33.93;31.37;;;14.00;99.90;;;;;;4917095;29;20553;-83
2021/09/06 21:18:58;;;;;;;30.03;27.00;;;13.90;99.90;;;;;;4820924;29;20500;-83
2021/09/06 21:21:36;;;;;;;27.63;25.10;;;13.90;99.90;;;;;;4886969;29;21049;-83
2021/09/06 21:24:30;;;;;;;28.90;26.50;;;13.90;99.90;;;;;;4917451;29;20949;-83
2021/09/06 21:27:31;;;;;;;;;;;;;;;;;;;;;
2021/09/06 21:30:11;;;;;;;;;;;;;;;;;;;;;
2021/09/06 21:32:46;;;;;;;48.73;45.50;;;13.80;99.90;;;;;;4884474;29;20477;-83
2021/09/06 21:39:07;;;;;;;42.20;39.33;;;13.70;99.90;;;;;;4914493;29;20454;-83
2021/09/06 21:41:57;;;;;;;52.37;48.97;;;13.70;99.90;;;;;;4786487;29;20962;-83
2021/09/06 21:44:44;;;;;;;39.00;36.40;;;13.70;99.90;;;;;;4892130;29;20468;-83
2021/09/06 21:47:26;;;;;;;;;;;;;;;;;;;;;
2021/09/06 21:50:14;;;;;;;31.43;28.93;;;13.60;99.90;;;;;;4917758;29;20461;-83
2021/09/06 21:52:45;;;;;;;32.97;29.97;;;13.70;99.90;;;;;;4916442;29;20453;-83
2021/09/06 21:55:24;;;;;;;32.40;30.07;;;13.80;99.90;;;;;;4917015;29;20565;-83
2021/09/06 21:58:26;;;;;;;44.17;40.97;;;13.70;99.90;;;;;;4917585;29;20465;-83
2021/09/06 22:01:18;;;;;;;40.87;38.10;;;13.70;99.90;;;;;;4917594;29;20880;-84
2021/09/06 22:10:07;;;;;;;;;;;;;;;;;;;;;
2021/09/06 22:13:09;;;;;;;62.67;59.10;;;13.60;99.90;;;;;;4882807;29;20460;-83
2021/09/06 22:16:18;;;;;;;63.07;59.47;;;13.50;99.90;;;;;;4822379;29;20565;-83
2021/09/06 22:18:55;;;;;;;69.03;65.37;;;13.40;99.90;;;;;;4840365;29;20552;-83
2021/09/06 22:22:11;;;;;;;85.13;80.67;;;13.40;99.90;;;;;;4893626;29;20822;-83
2021/09/06 22:24:50;;;;;;;;;;;;;;;;;;;;;
2021/09/06 22:27:43;;;;;;;;;;;;;;;;;;;;;
2021/09/06 22:30:39;;;;;;;109.83;104.37;;;13.40;99.90;;;;;;4932468;29;20496;-84
2021/09/06 22:33:21;;;;;;;;;;;;;;;;;;;;;
2021/09/06 22:36:00;;;;;;;;;;;;;;;;;;;;;
2021/09/06 22:38:52;;;;;;;76.27;71.97;;;13.30;99.90;;;;;;4932534;29;20451;-83
2021/09/06 22:41:34;;;;;;;82.47;77.67;;;13.20;99.90;;;;;;4933543;29;20480;-84
2021/09/06 22:44:05;;;;;;;92.43;87.37;;;13.20;99.90;;;;;;4936123;29;20470;-83
2021/09/06 22:46:52;;;;;;;100.30;94.73;;;13.30;99.90;;;;;;4935587;29;20468;-83
2021/09/06 22:49:49;;;;;;;102.10;97.10;;;13.40;99.90;;;;;;4935755;29;20465;-83
2021/09/06 22:52:59;;;;;;;;;;;;;;;;;;;;;
2021/09/06 22:56:00;;;;;;;;;;;;;;;;;;;;;
2021/09/06 22:58:41;;;;;;;77.17;72.80;;;13.40;99.90;;;;;;4868981;29;21048;-83
2021/09/06 23:01:32;;;;;;;;;;;;;;;;;;;;;
2021/09/06 23:04:00;;;;;;;71.33;67.40;;;13.30;99.90;;;;;;4923088;29;20460;-84
2021/09/06 23:06:32;;;;;;;74.80;70.20;;;13.30;99.90;;;;;;4935303;29;20808;-84
2021/09/06 23:12:25;;;;;;;63.47;59.20;;;13.20;99.90;;;;;;4935567;29;20460;-84
2021/09/06 23:14:56;;;;;;;74.33;69.20;;;13.20;99.90;;;;;;4935495;29;20457;-83
2021/09/06 23:20:21;;;;;;;90.20;84.70;;;13.10;99.90;;;;;;4931734;23;20508;-83
2021/09/06 23:22:54;;;;;;;79.70;74.90;;;13.30;99.90;;;;;;4915460;29;20458;-83
2021/09/06 23:25:33;;;;;;;83.57;78.57;;;13.20;99.90;;;;;;4916452;29;20462;-83
2021/09/06 23:31:13;;;;;;;104.50;98.40;;;13.20;99.90;;;;;;4913801;29;20466;-82
2021/09/06 23:33:52;;;;;;;;;;;;;;;;;;;;;
2021/09/06 23:36:26;;;;;;;86.83;81.47;;;13.20;99.90;;;;;;4906293;29;20452;-83
2021/09/06 23:38:57;;;;;;;97.33;91.03;;;13.10;99.90;;;;;;4881763;29;20442;-83
2021/09/06 23:42:01;;;;;;;;;;;;;;;;;;;;;
2021/09/06 23:44:48;;;;;;;;;;;;;;;;;;;;;
2021/09/06 23:47:20;;;;;;;87.27;81.73;;;12.90;99.90;;;;;;4821554;29;20561;-82
2021/09/06 23:49:54;;;;;;;87.40;82.07;;;13.00;99.90;;;;;;4833887;29;21016;-82
2021/09/06 23:52:31;;;;;;;;;;;;;;;;;;;;;
2021/09/06 23:55:25;;;;;;;89.90;84.43;;;13.00;99.90;;;;;;4913949;29;20469;-82
2021/09/06 23:58:08;;;;;;;90.80;85.67;;;12.90;99.90;;;;;;4911630;29;20504;-82
